Time;durP1;ratioP1;P1;durP2;ratioP2;P2;SDS_P1;SDS_P2;PMS_P1;PMS_P2;Temp;Humidity;BMP_temperature;BMP_pressure;BME280_temperature;BME280_humidity;BME280_pressure;Samples;Min_cycle;Max_cycle;Signal;HPM_P1;HPM_P2
2023/12/10 00:01:29;;;;;;;1.65;1.42;;;;;;;20.92;38.18;99328.81;5058655;28;20105;-67
2023/12/10 00:03:54;;;;;;;2.75;1.02;;;;;;;20.91;38.03;99316.63;5012242;28;20066;-67
2023/12/10 00:06:20;;;;;;;2.22;1.23;;;;;;;20.91;38.06;99327.19;5075968;28;20360;-68
2023/12/10 00:08:45;;;;;;;2.95;1.40;;;;;;;20.93;38.28;99322.50;5026820;28;20035;-67
2023/12/10 00:11:11;;;;;;;1.55;1.35;;;;;;;20.88;38.08;99325.00;5076345;28;20385;-67
2023/12/10 00:13:38;;;;;;;1.77;0.95;;;;;;;20.92;38.30;99323.53;5027373;28;20072;-67
2023/12/10 00:16:03;;;;;;;1.60;1.02;;;;;;;20.91;38.15;99330.66;5081954;28;20418;-67
2023/12/10 00:18:29;;;;;;;1.80;1.30;;;;;;;20.91;38.21;99332.50;5065528;28;20040;-67
2023/12/10 00:20:54;;;;;;;0.47;0.47;;;;;;;20.89;38.08;99330.06;5080882;28;20052;-67
2023/12/10 00:23:20;;;;;;;1.80;1.10;;;;;;;20.88;38.08;99333.75;5036672;28;20047;-67
2023/12/10 00:25:46;;;;;;;1.45;1.13;;;;;;;20.91;38.31;99337.78;5081333;28;20054;-67
2023/12/10 00:28:13;;;;;;;2.45;1.52;;;;;;;20.90;38.39;99330.88;5032196;28;20040;-67
2023/12/10 00:30:41;;;;;;;1.75;1.52;;;;;;;20.91;38.14;99335.94;5079899;28;20044;-67
2023/12/10 00:33:08;;;;;;;3.55;3.10;;;;;;;20.87;38.33;99349.84;5029125;28;22097;-66
2023/12/10 00:35:34;;;;;;;2.67;1.98;;;;;;;20.78;38.27;99336.09;5081229;28;20036;-67
2023/12/10 00:38:00;;;;;;;6.15;5.65;;;;;;;20.90;37.93;99346.75;5031386;28;20826;-66
2023/12/10 00:40:26;;;;;;;2.40;2.20;;;;;;;20.81;38.13;99344.41;5061657;28;20094;-67
2023/12/10 00:42:51;;;;;;;2.60;2.28;;;;;;;20.74;38.33;99348.97;5066762;28;20043;-67
2023/12/10 00:45:17;;;;;;;2.45;2.25;;;;;;;20.83;38.25;99352.13;5061045;28;20035;-68
2023/12/10 00:47:42;;;;;;;2.30;2.03;;;;;;;20.81;38.27;99362.91;5053926;28;20036;-67
2023/12/10 00:50:09;;;;;;;1.35;1.25;;;;;;;20.86;38.33;99364.13;5060423;28;20036;-67
2023/12/10 00:52:36;;;;;;;2.67;1.45;;;;;;;20.80;38.10;99361.31;5071296;28;20614;-67
2023/12/10 00:55:03;;;;;;;2.47;2.10;;;;;;;20.87;38.30;99373.66;5042977;28;20047;-67
2023/12/10 00:57:29;;;;;;;1.95;1.65;;;;;;;20.84;38.25;99363.53;5080633;28;20029;-66
2023/12/10 00:59:54;;;;;;;2.40;1.67;;;;;;;20.88;38.05;99370.78;5027480;28;20122;-66
2023/12/10 01:02:20;;;;;;;1.90;1.33;;;;;;;20.88;38.38;99372.63;5083636;28;20043;-70
2023/12/10 01:04:46;;;;;;;2.67;1.98;;;;;;;20.87;38.21;99377.13;5032287;28;20464;-66
2023/12/10 01:07:11;;;;;;;2.30;1.50;;;;;;;20.85;38.31;99371.25;5082870;28;20031;-68
2023/12/10 01:09:38;;;;;;;1.48;1.38;;;;;;;20.87;38.28;99392.19;5066256;28;20474;-68
2023/12/10 01:12:06;;;;;;;2.95;1.73;;;;;;;20.84;38.08;99389.97;5081533;28;20573;-67
2023/12/10 01:14:31;;;;;;;1.88;1.15;;;;;;;20.77;38.07;99380.25;5028120;28;20048;-68
2023/12/10 01:16:57;;;;;;;2.47;1.65;;;;;;;20.64;38.28;99353.94;5045928;28;20122;-68
2023/12/10 01:19:22;;;;;;;2.03;1.30;;;;;;;20.80;38.43;99394.88;5028585;28;20044;-68
2023/12/10 01:21:49;;;;;;;2.28;1.63;;;;;;;20.81;38.17;99402.59;5080358;28;20039;-68
2023/12/10 01:24:18;;;;;;;2.10;1.60;;;;;;;20.81;38.35;99397.31;5030840;28;20147;-68
2023/12/10 01:26:44;;;;;;;1.57;1.10;;;;;;;20.81;38.17;99388.56;5062036;28;20530;-67
2023/12/10 01:29:10;;;;;;;1.67;1.58;;;;;;;20.80;38.20;99392.25;5083014;28;20469;-67
2023/12/10 01:31:35;;;;;;;1.77;1.38;;;;;;;20.75;38.32;99382.31;5028000;28;20043;-68
2023/12/10 01:34:02;;;;;;;1.70;0.93;;;;;;;20.82;38.10;99392.81;5074824;28;20102;-66
2023/12/10 01:36:28;;;;;;;2.28;1.23;;;;;;;20.80;38.40;99393.03;5028017;28;20071;-66
2023/12/10 01:38:53;;;;;;;1.92;1.13;;;;;;;20.79;38.10;99394.06;5043406;28;20043;-68
2023/12/10 01:41:19;;;;;;;0.85;0.82;;;;;;;20.76;38.28;99385.78;5023678;28;20043;-66
2023/12/10 01:43:45;;;;;;;2.42;1.35;;;;;;;20.74;38.08;99387.84;5061622;28;20066;-65
2023/12/10 01:46:11;;;;;;;1.90;1.15;;;;;;;20.76;38.35;99391.88;5026524;28;21509;-67
2023/12/10 01:48:41;;;;;;;1.63;1.10;;;;;;;20.76;38.06;99404.28;5060917;28;20075;-67
2023/12/10 01:51:08;;;;;;;1.40;1.27;;;;;;;20.76;38.41;99402.47;5082336;28;20036;-67
2023/12/10 01:53:34;;;;;;;1.52;1.30;;;;;;;20.75;38.25;99397.38;5027485;28;20055;-66
2023/12/10 01:55:59;;;;;;;2.38;1.55;;;;;;;20.75;38.27;99390.25;5060467;28;20059;-67
2023/12/10 01:58:26;;;;;;;2.60;1.75;;;;;;;20.73;38.24;99376.44;5019136;28;20138;-66
2023/12/10 02:00:52;;;;;;;1.65;1.50;;;;;;;20.77;38.20;99384.75;5078443;28;20055;-67
2023/12/10 02:03:18;;;;;;;3.22;2.40;;;;;;;20.77;38.40;99398.78;5028611;28;20035;-66
2023/12/10 02:05:43;;;;;;;3.28;2.35;;;;;;;20.74;38.38;99378.06;5076688;28;20039;-66
2023/12/10 02:08:09;;;;;;;4.22;3.08;;;;;;;20.71;38.12;99378.50;5031332;28;20071;-65
2023/12/10 02:10:34;;;;;;;7.78;7.10;;;;;;;20.76;38.13;99391.06;5061017;28;20077;-67
2023/12/10 02:13:02;;;;;;;2.47;2.22;;;;;;;20.73;38.37;99388.88;5078845;28;20098;-66
2023/12/10 02:15:28;;;;;;;3.17;2.78;;;;;;;20.74;38.13;99386.00;5078851;28;20354;-67
2023/12/10 02:17:54;;;;;;;3.25;2.47;;;;;;;20.68;38.23;99389.53;5027564;28;20464;-67
2023/12/10 02:20:19;;;;;;;2.35;2.15;;;;;;;20.73;38.33;99388.88;5058359;28;20126;-67
2023/12/10 02:23:17;;;;;;;2.70;1.52;;;;;;;20.72;38.04;99395.19;5008883;28;20079;-66
2023/12/10 02:25:43;;;;;;;4.63;4.22;;;;;;;20.74;38.35;99383.34;5023187;28;20030;-67
2023/12/10 02:28:10;;;;;;;1.23;1.05;;;;;;;20.70;38.25;99387.47;5058416;28;20542;-66
2023/12/10 02:30:36;;;;;;;1.80;0.95;;;;;;;20.62;38.31;99369.22;5050345;28;20036;-66
2023/12/10 02:33:02;;;;;;;1.60;1.48;;;;;;;20.71;38.37;99381.16;5038839;28;20040;-65
2023/12/10 02:35:28;;;;;;;2.05;1.27;;;;;;;20.69;38.41;99374.47;5062594;28;20677;-65
2023/12/10 02:37:54;;;;;;;2.42;1.60;;;;;;;20.69;38.23;99382.41;5083766;28;20127;-66
2023/12/10 02:40:20;;;;;;;2.03;1.23;;;;;;;20.69;38.42;99379.75;5030458;28;20034;-67
2023/12/10 02:42:46;;;;;;;1.75;1.35;;;;;;;20.69;38.33;99377.94;5083118;28;20037;-66
2023/12/10 02:45:13;;;;;;;1.60;1.50;;;;;;;20.68;38.33;99378.16;5030025;28;25215;-67
2023/12/10 02:47:38;;;;;;;1.60;1.30;;;;;;;20.70;38.26;99378.72;5089972;28;20047;-67
2023/12/10 02:50:05;;;;;;;2.90;2.53;;;;;;;20.69;38.51;99377.94;5029299;28;20665;-67
2023/12/10 02:52:32;;;;;;;1.98;1.77;;;;;;;20.68;38.26;99383.44;5087724;28;20597;-66
2023/12/10 02:54:58;;;;;;;2.40;1.65;;;;;;;20.67;38.28;99384.47;5070391;28;20696;-66
2023/12/10 02:57:23;;;;;;;2.58;1.77;;;;;;;20.67;38.33;99387.91;5086243;28;20028;-67
2023/12/10 02:59:49;;;;;;;2.03;1.73;;;;;;;20.63;38.30;99381.44;5033163;28;20080;-68
2023/12/10 03:02:14;;;;;;;2.80;1.88;;;;;;;20.65;38.46;99384.69;5082149;28;20097;-66
2023/12/10 03:04:40;;;;;;;3.63;1.75;;;;;;;20.66;38.33;99372.28;5031203;28;20044;-66
2023/12/10 03:07:05;;;;;;;3.33;2.47;;;;;;;20.62;38.35;99373.72;5083417;28;20035;-68
2023/12/10 03:09:31;;;;;;;3.90;2.83;;;;;;;20.65;38.29;99378.59;5023989;28;20735;-68
2023/12/10 03:11:56;;;;;;;6.70;6.00;;;;;;;20.60;38.43;99366.00;5066345;28;20056;-65
2023/12/10 03:14:22;;;;;;;12.45;11.13;;;;;;;20.65;38.26;99355.59;5080071;28;20060;-66
2023/12/10 03:16:48;;;;;;;4.82;4.35;;;;;;;20.64;38.38;99369.00;5042587;28;20056;-66
2023/12/10 03:19:13;;;;;;;6.07;4.53;;;;;;;20.59;38.28;99361.75;5064001;28;20040;-67
2023/12/10 03:21:39;;;;;;;2.50;1.88;;;;;;;20.58;38.32;99361.97;5042869;28;20093;-66
2023/12/10 03:24:04;;;;;;;5.80;4.38;;;;;;;20.46;38.29;99351.28;5056610;28;20040;-64
2023/12/10 03:26:30;;;;;;;3.35;2.80;;;;;;;20.59;38.37;99356.44;5062776;28;20104;-67
2023/12/10 03:28:55;;;;;;;20.88;18.90;;;;;;;20.44;38.30;99337.50;5007682;28;20296;-67
2023/12/10 03:31:21;;;;;;;21.30;17.92;;;;;;;20.62;38.31;99360.50;5082848;28;20113;-67
2023/12/10 03:33:49;;;;;;;4.30;3.92;;;;;;;20.62;38.35;99363.94;5025584;28;20040;-66
2023/12/10 03:36:16;;;;;;;3.42;2.80;;;;;;;20.62;38.24;99365.78;5071301;28;20066;-68
2023/12/10 03:38:41;;;;;;;4.07;3.08;;;;;;;20.62;38.40;99363.13;5059533;28;20047;-66
2023/12/10 03:41:07;;;;;;;2.08;1.70;;;;;;;20.59;38.38;99368.88;5058393;28;20625;-67
2023/12/10 03:43:32;;;;;;;2.20;1.83;;;;;;;20.61;38.48;99367.63;5079459;28;20054;-67
2023/12/10 03:45:58;;;;;;;2.92;2.58;;;;;;;20.60;38.24;99365.19;5031515;28;20097;-67
2023/12/10 03:48:24;;;;;;;7.07;6.40;;;;;;;20.59;38.32;99369.69;5059762;28;20723;-67
2023/12/10 03:50:51;;;;;;;9.20;7.78;;;;;;;20.56;38.47;99350.81;5080213;28;20036;-67
2023/12/10 03:53:17;;;;;;;3.08;2.53;;;;;;;20.59;38.38;99364.38;5080937;28;20064;-65
2023/12/10 03:55:42;;;;;;;31.75;20.35;;;;;;;20.57;38.35;99349.78;5029324;28;20044;-66
2023/12/10 03:58:08;;;;;;;2.47;2.15;;;;;;;20.59;38.39;99337.13;5084910;28;20039;-67
2023/12/10 04:00:33;;;;;;;3.55;2.33;;;;;;;20.59;38.18;99345.88;5027512;28;20097;-67
2023/12/10 04:02:59;;;;;;;3.92;2.67;;;;;;;20.55;38.49;99341.25;5078617;28;20093;-66
2023/12/10 04:05:24;;;;;;;4.20;3.15;;;;;;;20.47;38.38;99334.44;5029865;28;20040;-66
2023/12/10 04:07:50;;;;;;;2.17;1.88;;;;;;;20.57;38.37;99342.66;5042702;28;20031;-67
2023/12/10 04:10:15;;;;;;;2.20;2.00;;;;;;;20.56;38.39;99345.50;5073497;28;20694;-66
2023/12/10 04:12:41;;;;;;;3.13;2.35;;;;;;;20.57;38.34;99347.13;5025651;28;20032;-67
2023/12/10 04:15:07;;;;;;;5.45;3.70;;;;;;;20.57;38.25;99345.28;5078251;28;20055;-66
2023/12/10 04:17:32;;;;;;;2.88;2.22;;;;;;;20.47;38.39;99331.78;5026953;28;20052;-66
2023/12/10 04:19:58;;;;;;;3.83;2.65;;;;;;;20.46;38.54;99335.44;5059755;28;20440;-67
2023/12/10 04:22:24;;;;;;;6.32;3.72;;;;;;;20.56;38.54;99350.81;5031992;28;20035;-66
2023/12/10 04:24:50;;;;;;;3.55;2.88;;;;;;;20.55;38.57;99343.91;5077033;28;20399;-66
2023/12/10 04:27:15;;;;;;;3.45;2.78;;;;;;;20.56;38.23;99353.44;5030247;28;20045;-68
2023/12/10 04:29:41;;;;;;;3.08;2.80;;;;;;;20.53;38.36;99344.13;5079561;28;20052;-66
2023/12/10 04:32:07;;;;;;;4.03;3.35;;;;;;;20.55;38.38;99352.63;5061794;28;20048;-66
2023/12/10 04:34:32;;;;;;;2.78;2.53;;;;;;;20.47;38.40;99331.78;5079776;28;20055;-67
2023/12/10 04:36:58;;;;;;;9.30;8.43;;;;;;;20.55;38.46;99352.63;5025881;28;22138;-67
2023/12/10 04:39:24;;;;;;;9.82;8.98;;;;;;;20.51;38.43;99336.41;5082577;28;20020;-66
2023/12/10 04:41:50;;;;;;;9.05;8.18;;;;;;;20.51;38.40;99344.34;5014314;28;20032;-67
2023/12/10 04:44:15;;;;;;;3.67;2.42;;;;;;;20.33;38.51;99311.75;5076311;28;20050;-67
2023/12/10 04:46:41;;;;;;;3.25;2.80;;;;;;;20.52;38.41;99331.94;5053784;28;20046;-65
2023/12/10 04:49:07;;;;;;;2.17;1.98;;;;;;;20.49;38.38;99333.19;5034375;28;20143;-65
2023/12/10 04:51:32;;;;;;;2.63;2.20;;;;;;;20.43;38.53;99320.00;5084479;28;20606;-68
2023/12/10 04:53:58;;;;;;;3.00;2.25;;;;;;;20.50;38.39;99334.00;5020738;28;20071;-66
2023/12/10 04:56:24;;;;;;;2.35;2.15;;;;;;;20.46;38.38;99328.31;5065901;28;20491;-67
2023/12/10 04:58:49;;;;;;;2.75;2.33;;;;;;;20.50;38.45;99332.16;5039743;28;20044;-65
2023/12/10 05:01:15;;;;;;;3.92;2.90;;;;;;;20.49;38.52;99330.53;5074289;28;20088;-67
2023/12/10 05:03:41;;;;;;;2.28;1.83;;;;;;;20.29;38.34;99298.19;5054737;28;20055;-68
2023/12/10 05:06:07;;;;;;;2.78;2.15;;;;;;;20.50;38.37;99340.09;5067682;28;20033;-67
2023/12/10 05:08:34;;;;;;;2.22;2.03;;;;;;;20.50;38.56;99336.63;5078906;28;20063;-66
2023/12/10 05:10:59;;;;;;;2.10;1.88;;;;;;;20.44;38.54;99332.19;5026502;28;20067;-66
2023/12/10 05:13:25;;;;;;;2.47;2.08;;;;;;;20.40;38.41;99326.53;5059720;28;20068;-67
2023/12/10 05:15:51;;;;;;;3.00;2.55;;;;;;;20.49;38.51;99348.25;5030238;28;20044;-66
2023/12/10 05:18:16;;;;;;;3.20;2.60;;;;;;;20.48;38.46;99336.84;5065073;28;20545;-66
2023/12/10 05:20:42;;;;;;;4.03;3.35;;;;;;;20.47;38.48;99361.69;5075799;28;20479;-66
2023/12/10 05:23:08;;;;;;;3.38;3.03;;;;;;;20.44;38.46;99345.41;5028178;28;21602;-67
2023/12/10 05:25:34;;;;;;;3.05;2.75;;;;;;;20.43;38.46;99347.25;5084697;28;20068;-66
2023/12/10 05:27:59;;;;;;;5.93;5.45;;;;;;;20.47;38.38;99353.75;5028586;28;22001;-67
2023/12/10 05:30:25;;;;;;;2.85;2.53;;;;;;;20.46;38.49;99357.38;5088527;28;20036;-67
2023/12/10 05:32:51;;;;;;;8.85;8.10;;;;;;;20.41;38.51;99349.31;5045324;28;20143;-67
2023/12/10 05:35:17;;;;;;;2.38;1.58;;;;;;;20.46;38.49;99357.38;5065945;28;20101;-67
2023/12/10 05:37:42;;;;;;;2.28;2.08;;;;;;;20.46;38.44;99361.88;5033944;28;20032;-64
2023/12/10 05:40:08;;;;;;;2.17;1.88;;;;;;;20.46;38.58;99365.31;5058472;28;20056;-67
2023/12/10 05:42:34;;;;;;;2.03;1.92;;;;;;;20.48;38.29;99373.88;5045627;28;20045;-66
2023/12/10 05:44:59;;;;;;;1.42;1.17;;;;;;;20.47;38.50;99372.25;5082501;28;20372;-65
2023/12/10 05:47:25;;;;;;;1.38;1.17;;;;;;;20.36;38.43;99341.22;5082496;28;20032;-67
2023/12/10 05:49:51;;;;;;;0.98;0.93;;;;;;;20.47;38.36;99389.97;5028468;28;20036;-66
2023/12/10 05:52:16;;;;;;;1.17;0.98;;;;;;;20.48;38.44;99391.56;5084455;28;20035;-67
2023/12/10 05:54:42;;;;;;;1.20;1.10;;;;;;;20.51;38.33;99413.09;5032216;28;20064;-67
2023/12/10 05:57:08;;;;;;;1.50;0.98;;;;;;;20.50;38.52;99418.59;5075212;28;20039;-67
2023/12/10 05:59:34;;;;;;;1.15;1.05;;;;;;;20.50;38.43;99432.63;5030771;28;20044;-66
2023/12/10 06:02:00;;;;;;;1.35;1.25;;;;;;;20.51;38.51;99438.72;5079392;28;20036;-67
2023/12/10 06:04:25;;;;;;;1.20;1.10;;;;;;;20.51;38.28;99422.88;5013577;28;20682;-67
2023/12/10 06:06:51;;;;;;;1.75;1.52;;;;;;;20.11;38.48;99369.50;5076580;28;20044;-66
2023/12/10 06:09:16;;;;;;;2.45;2.25;;;;;;;20.51;38.42;99428.97;5062513;28;20040;-66
2023/12/10 06:11:42;;;;;;;1.95;1.65;;;;;;;20.45;38.44;99437.75;5081490;28;20040;-66
2023/12/10 06:14:07;;;;;;;1.55;1.45;;;;;;;20.51;38.34;99442.19;5034047;28;20040;-66
2023/12/10 06:16:33;;;;;;;1.10;1.00;;;;;;;20.51;38.75;99454.59;5081723;28;20048;-66
2023/12/10 06:18:59;;;;;;;2.40;2.20;;;;;;;20.51;38.53;99451.94;5030860;28;20043;-66
2023/12/10 06:21:24;;;;;;;2.28;1.85;;;;;;;20.52;38.58;99469.44;5079041;28;20056;-66
2023/12/10 06:23:50;;;;;;;1.75;1.33;;;;;;;20.49;38.62;99473.31;5031546;28;20098;-67
2023/12/10 06:26:15;;;;;;;3.58;2.70;;;;;;;20.41;38.59;99468.28;5048700;28;20036;-65
2023/12/10 06:28:41;;;;;;;4.18;3.70;;;;;;;20.50;38.61;99492.66;5019235;28;20666;-66
2023/12/10 06:31:06;;;;;;;2.10;1.83;;;;;;;20.50;38.65;99498.75;5082216;28;20555;-66
2023/12/10 06:33:32;;;;;;;2.13;1.95;;;;;;;20.50;38.50;99504.03;5077670;28;20043;-64
2023/12/10 06:35:57;;;;;;;1.27;0.93;;;;;;;20.50;38.64;99511.16;5027594;28;20086;-67
2023/12/10 06:38:23;;;;;;;3.17;2.60;;;;;;;20.50;38.68;99534.97;5057438;28;20028;-67
2023/12/10 06:40:48;;;;;;;2.58;2.38;;;;;;;20.49;38.62;99528.84;5029241;28;20681;-65
2023/12/10 06:43:14;;;;;;;2.85;2.58;;;;;;;20.43;38.76;99524.41;5066967;28;20345;-64
2023/12/10 06:45:39;;;;;;;4.47;3.60;;;;;;;20.47;38.66;99544.13;5028844;28;20036;-64
2023/12/10 06:48:06;;;;;;;2.17;1.98;;;;;;;20.50;38.71;99554.28;5080793;28;20126;-64
2023/12/10 06:50:32;;;;;;;1.40;1.30;;;;;;;20.49;38.65;99554.50;5027006;28;20055;-64
2023/12/10 06:52:57;;;;;;;2.67;1.42;;;;;;;20.51;38.70;99569.13;5062950;28;20040;-66
2023/12/10 06:55:23;;;;;;;1.42;1.30;;;;;;;20.50;38.54;99564.03;5079087;28;20114;-67
2023/12/10 06:57:49;;;;;;;0.85;0.82;;;;;;;20.47;38.75;99572.41;5032218;28;20476;-66
2023/12/10 07:00:15;;;;;;;1.63;1.25;;;;;;;20.46;38.68;99579.50;5084241;28;20036;-65
2023/12/10 07:02:40;;;;;;;0.93;0.93;;;;;;;20.47;38.55;99591.72;5025977;28;20028;-66
2023/12/10 07:05:06;;;;;;;1.48;1.38;;;;;;;20.48;38.76;99600.47;5080771;28;20349;-65
2023/12/10 07:07:32;;;;;;;1.42;1.25;;;;;;;20.41;38.62;99603.13;5008491;28;20052;-66
2023/12/10 07:09:57;;;;;;;2.13;1.88;;;;;;;20.53;38.57;99621.78;5063709;28;20148;-65
2023/12/10 07:12:23;;;;;;;0.65;0.63;;;;;;;20.50;38.62;99622.22;5027700;28;20059;-66
2023/12/10 07:14:48;;;;;;;0.77;0.77;;;;;;;20.51;38.68;99639.72;5085131;28;20186;-67
2023/12/10 07:17:14;;;;;;;0.68;0.43;;;;;;;20.51;38.68;99650.28;5058921;28;20058;-66
2023/12/10 07:19:40;;;;;;;1.10;1.05;;;;;;;20.49;38.62;99669.00;5078942;28;20036;-64
2023/12/10 07:22:06;;;;;;;1.33;0.80;;;;;;;20.52;38.73;99671.22;5027293;28;20047;-66
2023/12/10 07:24:32;;;;;;;0.38;0.38;;;;;;;20.47;38.69;99668.41;5077199;28;20051;-66
2023/12/10 07:26:57;;;;;;;0.45;0.30;;;;;;;20.50;38.72;99678.56;5030810;28;20126;-65
2023/12/10 07:29:23;;;;;;;0.85;0.60;;;;;;;20.50;38.94;99686.50;5079434;28;22051;-67
2023/12/10 07:31:48;;;;;;;0.70;0.38;;;;;;;20.52;38.83;99704.81;5033107;28;20124;-64
2023/12/10 07:34:14;;;;;;;0.68;0.40;;;;;;;20.52;38.70;99708.25;5061088;28;20452;-67
2023/12/10 07:36:39;;;;;;;0.80;0.75;;;;;;;20.54;38.56;99709.88;5083812;28;20043;-67
2023/12/10 07:39:07;;;;;;;0.85;0.70;;;;;;;20.52;38.76;99723.31;5031526;28;20101;-67
2023/12/10 07:41:33;;;;;;;0.60;0.40;;;;;;;20.58;38.80;99724.28;5074719;28;20052;-67
2023/12/10 07:43:58;;;;;;;0.25;0.22;;;;;;;20.78;38.04;99735.59;5032903;28;20087;-66
2023/12/10 07:46:24;;;;;;;1.08;0.40;;;;;;;21.38;37.01;99728.09;5060375;28;20047;-67
2023/12/10 07:48:50;;;;;;;1.38;0.68;;;;;;;21.53;36.82;99704.72;5026021;28;20036;-64
2023/12/10 07:51:15;;;;;;;1.02;0.50;;;;;;;21.90;36.77;99760.44;5075458;28;20751;-66
2023/12/10 07:53:42;;;;;;;0.40;0.22;;;;;;;21.91;36.49;99754.94;5027310;28;20055;-67
2023/12/10 07:56:09;;;;;;;1.15;0.70;;;;;;;21.78;36.96;99767.50;5078089;28;20047;-65
2023/12/10 07:58:35;;;;;;;0.35;0.30;;;;;;;21.69;36.86;99754.50;5025494;28;20036;-66
2023/12/10 08:01:02;;;;;;;2.13;0.50;;;;;;;21.64;37.37;99772.09;5079887;28;20046;-66
2023/12/10 08:03:27;;;;;;;0.40;0.40;;;;;;;21.51;37.38;99762.41;5028912;28;20534;-65
2023/12/10 08:05:53;;;;;;;0.28;0.20;;;;;;;21.50;37.64;99770.56;5081083;28;20039;-66
2023/12/10 08:08:19;;;;;;;0.28;0.20;;;;;;;21.45;38.01;99781.00;5029142;28;20055;-66
2023/12/10 08:10:46;;;;;;;0.55;0.40;;;;;;;21.36;37.59;99780.44;5075967;28;20036;-64
2023/12/10 08:13:11;;;;;;;1.00;0.70;;;;;;;21.28;38.45;99794.78;5027713;28;20678;-68
2023/12/10 08:15:37;;;;;;;1.35;0.60;;;;;;;21.28;38.62;99812.50;5077474;28;20048;-71
2023/12/10 08:18:02;;;;;;;0.45;0.40;;;;;;;21.10;38.55;99774.28;5065538;28;20044;-68
2023/12/10 08:20:28;;;;;;;0.55;0.47;;;;;;;21.21;38.73;99801.09;5079452;28;20039;-78
2023/12/10 08:22:53;;;;;;;39.83;22.02;;;;;;;21.46;38.53;99825.00;5008943;28;21022;-69
2023/12/10 08:25:19;;;;;;;4.85;2.53;;;;;;;21.41;38.76;99831.75;5077143;28;20360;-73
2023/12/10 08:27:45;;;;;;;2.50;1.23;;;;;;;21.45;39.12;99834.78;5040465;28;20088;-67
2023/12/10 08:30:11;;;;;;;22.35;15.23;;;;;;;21.28;39.33;99841.63;5049999;28;20141;-72
2023/12/10 08:32:37;;;;;;;2.10;0.60;;;;;;;21.23;39.41;99849.38;5068448;28;20042;-68
2023/12/10 08:35:03;;;;;;;1.77;0.60;;;;;;;21.16;39.39;99854.69;5046141;28;20437;-74
2023/12/10 08:37:28;;;;;;;1.70;0.77;;;;;;;20.97;39.43;99869.63;5051540;28;20039;-73
2023/12/10 08:39:54;;;;;;;1.38;0.93;;;;;;;20.85;39.46;99868.69;5083987;28;20043;-72
2023/12/10 08:42:19;;;;;;;1.20;0.60;;;;;;;20.75;39.44;99877.03;5033018;28;20121;-72
2023/12/10 08:44:45;;;;;;;0.70;0.60;;;;;;;20.73;39.58;99880.91;5064825;28;20051;-71
2023/12/10 08:47:10;;;;;;;2.00;0.98;;;;;;;20.60;40.04;99876.47;5011957;28;20063;-71
2023/12/10 08:49:36;;;;;;;2.28;1.70;;;;;;;20.72;40.19;99887.22;5065334;28;20047;-70
2023/12/10 08:52:02;;;;;;;1.60;1.00;;;;;;;20.83;39.82;99905.13;5028090;28;20039;-70
2023/12/10 08:54:28;;;;;;;1.35;0.70;;;;;;;20.94;40.00;99898.34;5064743;28;20210;-68
2023/12/10 08:56:53;;;;;;;1.25;0.68;;;;;;;21.04;39.80;99902.19;5081075;28;20056;-68
2023/12/10 08:59:19;;;;;;;1.10;0.57;;;;;;;21.08;39.63;99921.91;5032679;28;20036;-72
2023/12/10 09:01:44;;;;;;;1.77;0.85;;;;;;;21.07;39.49;99912.34;5080138;28;20640;-67
2023/12/10 09:04:10;;;;;;;0.75;0.47;;;;;;;21.12;39.73;99936.34;5034088;28;20028;-69
2023/12/10 09:06:35;;;;;;;1.73;0.55;;;;;;;21.08;39.64;99939.63;5081281;28;20046;-68
2023/12/10 09:09:01;;;;;;;0.50;0.50;;;;;;;21.15;39.72;99948.34;5024929;28;20350;-70
2023/12/10 09:11:27;;;;;;;2.55;1.05;;;;;;;21.19;39.40;99954.88;5083040;28;20055;-71
2023/12/10 09:13:52;;;;;;;0.93;0.50;;;;;;;21.11;39.82;99957.75;5010373;28;20035;-67
2023/12/10 09:16:19;;;;;;;3.08;0.77;;;;;;;21.08;40.09;99952.88;5062031;28;20040;-68
2023/12/10 09:18:44;;;;;;;2.30;0.77;;;;;;;21.09;39.75;99951.84;5014869;28;20028;-68
2023/12/10 09:21:10;;;;;;;3.38;1.05;;;;;;;21.28;39.70;99980.13;5065790;28;20342;-71
2023/12/10 09:23:36;;;;;;;0.75;0.50;;;;;;;21.27;39.23;99975.84;5036041;28;20480;-71
2023/12/10 09:26:02;;;;;;;1.55;0.50;;;;;;;21.34;39.31;99984.56;5064887;28;20044;-68
2023/12/10 09:28:28;;;;;;;1.55;0.60;;;;;;;21.36;39.37;99989.66;5031325;28;20040;-68
2023/12/10 09:30:53;;;;;;;1.58;0.68;;;;;;;21.40;39.23;99994.34;5086242;28;20043;-70
2023/12/10 09:33:19;;;;;;;1.00;0.43;;;;;;;21.44;39.56;99997.38;5027326;28;20117;-69
2023/12/10 09:35:44;;;;;;;0.70;0.52;;;;;;;21.48;39.19;99995.13;5083396;28;20067;-69
2023/12/10 09:38:10;;;;;;;0.65;0.40;;;;;;;21.48;39.45;99998.59;5024446;28;20035;-73
2023/12/10 09:40:35;;;;;;;1.27;1.02;;;;;;;21.37;39.08;99994.78;5075524;28;20048;-70
2023/12/10 09:43:01;;;;;;;0.73;0.65;;;;;;;21.37;39.89;100009.84;5011864;28;20044;-68
2023/12/10 09:45:28;;;;;;;1.33;0.90;;;;;;;21.32;39.51;100014.94;5066292;28;20031;-70
2023/12/10 09:47:54;;;;;;;3.55;1.10;;;;;;;21.28;39.82;100021.69;5085006;28;20063;-70
2023/12/10 09:50:21;;;;;;;2.47;0.90;;;;;;;21.25;39.55;100030.84;5060330;28;20124;-67
2023/12/10 09:52:47;;;;;;;2.78;0.63;;;;;;;21.10;39.59;100023.13;5061828;28;20876;-70
2023/12/10 09:55:13;;;;;;;1.30;0.73;;;;;;;21.16;39.54;100039.19;5038369;28;21195;-69
2023/12/10 09:57:39;;;;;;;0.93;0.65;;;;;;;21.12;39.41;100042.25;5067910;28;20044;-68
2023/12/10 10:00:06;;;;;;;1.25;0.65;;;;;;;21.09;39.62;100049.78;5081616;28;20045;-69
2023/12/10 10:02:36;;;;;;;1.75;0.70;;;;;;;21.06;39.40;100056.31;5029023;28;20044;-68
2023/12/10 10:05:03;;;;;;;2.05;1.00;;;;;;;21.06;39.58;100066.09;5070061;28;20127;-69
2023/12/10 10:07:29;;;;;;;2.10;1.10;;;;;;;21.07;39.50;100070.38;5018199;28;20361;-70
2023/12/10 10:09:55;;;;;;;2.83;1.00;;;;;;;21.04;39.56;100068.13;5064681;28;20810;-69
2023/12/10 10:12:20;;;;;;;0.88;0.65;;;;;;;20.98;39.28;100069.75;5027213;28;20054;-67
2023/12/10 10:14:59;;;;;;;1.35;0.90;;;;;;;21.02;39.50;100076.28;5077088;28;20333;-68
2023/12/10 10:17:32;;;;;;;1.95;1.10;;;;;;;20.98;39.27;100083.00;5031440;28;20035;-68
2023/12/10 10:19:58;;;;;;;1.60;1.02;;;;;;;20.93;39.32;100077.50;5087469;28;20130;-70
2023/12/10 10:22:25;;;;;;;0.90;0.90;;;;;;;20.98;39.31;100090.94;5003075;28;20036;-68
2023/12/10 10:24:51;;;;;;;1.80;1.02;;;;;;;20.93;39.31;100087.28;5072652;28;20116;-68
2023/12/10 10:27:18;;;;;;;3.08;1.17;;;;;;;20.97;39.23;100094.59;5025596;28;20047;-69
2023/12/10 10:29:44;;;;;;;3.13;0.93;;;;;;;20.96;39.25;100100.09;5056114;28;20036;-68
2023/12/10 10:32:15;;;;;;;1.38;1.00;;;;;;;20.94;39.43;100096.84;5022282;28;20814;-68
2023/12/10 10:34:44;;;;;;;2.40;1.17;;;;;;;20.89;39.33;100086.06;5078843;28;20036;-68
2023/12/10 10:37:09;;;;;;;2.33;1.13;;;;;;;20.84;39.46;100083.22;5026104;28;20039;-68
2023/12/10 10:39:36;;;;;;;2.65;1.10;;;;;;;20.92;39.15;100097.06;5081289;28;20040;-68
2023/12/10 10:42:06;;;;;;;2.60;1.30;;;;;;;20.92;39.20;100105.00;5033584;28;20040;-70
2023/12/10 10:44:31;;;;;;;;;;;;;;;20.92;39.18;100115.56;5078097;28;20028;-67
2023/12/10 10:46:58;;;;;;;2.00;1.00;;;;;;;20.88;39.28;100110.91;5026781;28;19989;-68
2023/12/10 10:49:25;;;;;;;3.38;1.98;;;;;;;20.89;39.25;100131.06;5075872;28;20066;-68
2023/12/10 10:51:51;;;;;;;0.95;0.85;;;;;;;20.83;39.21;100111.53;5027188;28;20043;-69
2023/12/10 10:54:17;;;;;;;2.97;1.38;;;;;;;20.88;39.20;100140.00;5058340;28;20032;-68
2023/12/10 10:56:44;;;;;;;4.30;1.20;;;;;;;20.79;39.04;100107.63;5076393;28;20526;-68
2023/12/10 10:59:30;;;;;;;1.77;1.00;;;;;;;20.93;39.22;100130.44;5006386;28;20050;-68
2023/12/10 11:02:00;;;;;;;2.08;1.13;;;;;;;20.92;39.15;100126.16;5080344;28;20496;-67
2023/12/10 11:04:36;;;;;;;3.38;1.50;;;;;;;20.95;39.16;100130.22;5007991;28;20044;-68
2023/12/10 11:07:05;;;;;;;1.83;1.00;;;;;;;20.99;39.25;100124.31;5075239;28;20648;-71
2023/12/10 11:09:31;;;;;;;2.22;1.15;;;;;;;21.03;39.46;100130.03;5025656;28;20058;-70
2023/12/10 11:11:59;;;;;;;3.28;1.20;;;;;;;21.02;39.30;100121.28;5080806;28;20251;-70
2023/12/10 11:14:28;;;;;;;2.13;0.98;;;;;;;21.06;39.21;100126.97;5025622;28;20461;-71
2023/12/10 11:17:04;;;;;;;2.53;1.30;;;;;;;21.01;39.22;100126.78;5061482;28;20040;-71
2023/12/10 11:19:32;;;;;;;1.58;0.88;;;;;;;21.04;39.25;100129.84;5021062;28;20033;-71
2023/12/10 11:21:59;;;;;;;1.88;1.10;;;;;;;21.05;39.08;100144.69;5061522;28;20546;-70
2023/12/10 11:24:25;;;;;;;2.15;0.98;;;;;;;21.06;39.37;100145.50;5024385;28;20036;-71
2023/12/10 11:26:51;;;;;;;2.40;1.08;;;;;;;21.01;39.31;100132.09;5079756;28;20537;-71